createdAt,value
2023-05-15T00:02:17.836Z,322.63
2023-05-15T00:05:07.141Z,313.23
2023-05-15T00:07:55.144Z,302.33
2023-05-15T00:10:57.536Z,304.38
2023-05-15T00:13:48.438Z,321.00
2023-05-15T00:16:36.969Z,310.58
2023-05-15T00:19:25.008Z,320.90
2023-05-15T00:22:13.381Z,310.13
2023-05-15T00:25:01.295Z,321.25
2023-05-15T00:27:50.889Z,298.70
2023-05-15T00:30:38.833Z,301.30
2023-05-15T00:33:28.085Z,328.60
2023-05-15T00:36:17.390Z,327.13
2023-05-15T00:39:05.839Z,335.23
2023-05-15T00:41:54.693Z,314.65
2023-05-15T00:44:46.076Z,330.05
2023-05-15T00:47:35.600Z,319.10
2023-05-15T00:50:24.796Z,313.63
2023-05-15T00:53:12.776Z,338.35
2023-05-15T00:56:02.197Z,326.52
2023-05-15T00:58:51.977Z,343.70
2023-05-15T01:01:41.745Z,303.77
2023-05-15T01:04:29.956Z,323.77
2023-05-15T01:07:18.479Z,323.23
2023-05-15T01:10:09.024Z,325.55
2023-05-15T01:12:59.681Z,318.67
2023-05-15T01:15:47.617Z,321.27
2023-05-15T01:18:37.842Z,324.80
2023-05-15T01:22:01.099Z,313.58
2023-05-15T01:25:16.061Z,310.63
2023-05-15T01:28:08.826Z,306.58
2023-05-15T01:30:58.201Z,319.17
2023-05-15T01:33:51.145Z,312.37
2023-05-15T01:36:44.160Z,292.27
2023-05-15T01:39:35.161Z,310.60
2023-05-15T01:42:28.493Z,302.27
2023-05-15T01:45:19.467Z,304.10
2023-05-15T01:48:09.329Z,296.83
2023-05-15T01:51:02.351Z,293.43
2023-05-15T01:53:51.262Z,277.33
2023-05-15T01:56:45.348Z,291.10
2023-05-15T01:59:35.852Z,297.10
2023-05-15T02:02:26.659Z,290.07
2023-05-15T02:05:18.901Z,300.00
2023-05-15T02:08:09.436Z,288.43
2023-05-15T02:10:59.385Z,299.43
2023-05-15T02:13:48.221Z,273.27
2023-05-15T02:16:36.825Z,299.13
2023-05-15T02:19:26.231Z,282.60
2023-05-15T02:22:14.433Z,294.93
2023-05-15T02:25:02.363Z,281.07
2023-05-15T02:27:59.978Z,280.83
2023-05-15T02:30:55.877Z,282.27
2023-05-15T02:33:52.060Z,273.10
2023-05-15T02:36:45.597Z,273.20
2023-05-15T02:39:34.450Z,288.47
2023-05-15T02:42:23.671Z,264.00
2023-05-15T02:45:13.269Z,283.70
2023-05-15T02:48:02.676Z,288.63
2023-05-15T02:50:50.713Z,271.50
2023-05-15T02:53:42.318Z,281.03
2023-05-15T02:56:30.291Z,268.23
2023-05-15T02:59:20.302Z,281.73
2023-05-15T03:02:08.274Z,284.33
2023-05-15T03:04:56.539Z,280.63
2023-05-15T03:07:44.493Z,272.07
2023-05-15T03:10:34.095Z,273.67
2023-05-15T03:13:22.051Z,296.40
2023-05-15T03:16:10.455Z,284.50
2023-05-15T03:18:58.506Z,272.93
2023-05-15T03:21:46.814Z,268.80
2023-05-15T03:24:34.784Z,272.87
2023-05-15T03:27:24.333Z,269.40
2023-05-15T03:30:12.435Z,279.03
2023-05-15T03:33:03.854Z,273.70
2023-05-15T03:35:52.455Z,269.17
2023-05-15T03:38:41.732Z,257.77
2023-05-15T03:41:29.785Z,278.87
2023-05-15T03:44:19.275Z,261.80
2023-05-15T03:47:08.300Z,258.97
2023-05-15T03:49:56.469Z,268.10
2023-05-15T03:52:44.464Z,266.83
2023-05-15T03:55:32.900Z,255.00
2023-05-15T03:58:20.801Z,270.87
2023-05-15T04:01:10.208Z,265.27
2023-05-15T04:03:58.110Z,275.77
2023-05-15T04:06:46.520Z,278.53
2023-05-15T04:09:34.640Z,257.10
2023-05-15T04:12:22.773Z,244.90
2023-05-15T04:15:21.900Z,279.00
2023-05-15T04:18:11.376Z,261.17
2023-05-15T04:20:59.255Z,269.83
2023-05-15T04:23:47.883Z,246.83
2023-05-15T04:26:36.483Z,260.90
2023-05-15T04:29:25.027Z,256.10
2023-05-15T04:32:12.991Z,267.30
2023-05-15T04:35:02.551Z,255.50
2023-05-15T04:37:50.504Z,252.60
2023-05-15T04:40:38.447Z,245.50
2023-05-15T04:43:26.646Z,251.80
2023-05-15T04:46:14.690Z,267.17
2023-05-15T04:49:02.988Z,284.50
2023-05-15T04:51:52.228Z,276.30
2023-05-15T04:54:40.268Z,262.17
2023-05-15T04:57:28.327Z,262.50
2023-05-15T05:00:17.247Z,287.87
2023-05-15T05:03:05.364Z,265.67
2023-05-15T05:05:53.287Z,272.93
2023-05-15T05:08:42.919Z,267.67
2023-05-15T05:11:30.805Z,311.70
2023-05-15T05:14:18.999Z,276.03
2023-05-15T05:17:06.934Z,271.40
2023-05-15T05:19:55.007Z,281.17
2023-05-15T05:22:42.956Z,284.77
2023-05-15T05:25:32.572Z,282.43
2023-05-15T05:28:20.511Z,273.37
2023-05-15T05:31:08.486Z,283.60
2023-05-15T05:33:57.048Z,290.10
2023-05-15T05:36:44.952Z,290.35
2023-05-15T05:39:33.229Z,287.13
2023-05-15T05:42:22.499Z,310.65
2023-05-15T05:45:11.556Z,307.27
2023-05-15T05:47:59.797Z,315.45
2023-05-15T05:50:48.024Z,325.42
2023-05-15T05:53:37.542Z,316.63
2023-05-15T05:56:26.568Z,317.33
2023-05-15T05:59:16.400Z,340.70
2023-05-15T06:02:05.038Z,330.52
2023-05-15T06:04:53.293Z,323.23
2023-05-15T06:07:41.347Z,359.23
2023-05-15T06:10:29.938Z,344.05
2023-05-15T06:13:17.906Z,333.50
2023-05-15T06:16:07.877Z,343.33
2023-05-15T06:18:56.180Z,362.77
2023-05-15T06:21:44.176Z,323.25
2023-05-15T06:24:32.883Z,340.45
2023-05-15T06:27:20.964Z,355.45
2023-05-15T06:30:10.309Z,341.50
2023-05-15T06:32:59.870Z,342.65
2023-05-15T06:35:48.317Z,348.48
2023-05-15T06:38:36.571Z,349.33
2023-05-15T06:41:24.526Z,344.55
2023-05-15T06:44:12.727Z,348.42
2023-05-15T06:47:00.912Z,379.85
2023-05-15T06:49:50.404Z,364.27
2023-05-15T06:52:38.368Z,364.83
2023-05-15T06:55:26.898Z,377.65
2023-05-15T06:58:17.838Z,385.70
2023-05-15T07:01:07.389Z,384.52
2023-05-15T07:03:55.611Z,389.02
2023-05-15T07:06:45.508Z,388.38
2023-05-15T07:09:33.437Z,385.60
2023-05-15T07:12:21.589Z,363.10
2023-05-15T07:15:10.313Z,349.58
2023-05-15T07:17:58.507Z,333.60
2023-05-15T07:20:46.532Z,343.00
2023-05-15T07:23:35.815Z,333.45
2023-05-15T07:26:32.817Z,317.98
2023-05-15T07:29:24.714Z,279.52
2023-05-15T07:32:12.629Z,256.92
2023-05-15T07:35:00.809Z,217.70
2023-05-15T07:37:49.163Z,204.57
2023-05-15T07:40:38.579Z,199.77
2023-05-15T07:43:26.867Z,206.95
2023-05-15T07:46:14.860Z,185.43
2023-05-15T07:49:03.116Z,175.60
2023-05-15T07:51:51.129Z,170.00
2023-05-15T07:54:39.759Z,163.60
2023-05-15T07:57:29.023Z,159.38
2023-05-15T08:00:19.023Z,176.15
2023-05-15T08:03:07.167Z,187.95
2023-05-15T08:05:55.514Z,196.82
2023-05-15T08:08:43.654Z,194.18
2023-05-15T08:11:31.672Z,207.95
2023-05-15T08:14:20.983Z,219.80
2023-05-15T08:17:09.881Z,215.73
2023-05-15T08:19:57.817Z,235.80
2023-05-15T08:22:45.968Z,227.45
2023-05-15T08:25:33.918Z,244.45
2023-05-15T08:28:22.236Z,246.13
2023-05-15T08:31:11.491Z,278.08
2023-05-15T08:33:59.608Z,288.00
2023-05-15T08:36:47.544Z,295.67
2023-05-15T08:39:35.744Z,282.88
2023-05-15T08:42:29.241Z,299.48
2023-05-15T08:45:17.534Z,306.85
2023-05-15T08:48:12.262Z,292.08
2023-05-15T08:51:01.678Z,310.15
2023-05-15T08:53:50.715Z,314.10
2023-05-15T08:56:38.985Z,309.60
2023-05-15T08:59:27.311Z,310.00
2023-05-15T09:02:17.088Z,313.48
2023-05-15T09:05:07.439Z,331.05
2023-05-15T09:07:56.773Z,316.67
2023-05-15T09:10:45.584Z,311.70
2023-05-15T09:13:33.671Z,312.23
2023-05-15T09:16:22.315Z,303.63
2023-05-15T09:19:11.527Z,291.42
2023-05-15T09:22:16.539Z,290.80
2023-05-15T09:25:06.695Z,302.85
2023-05-15T09:27:54.958Z,297.95
2023-05-15T09:30:43.972Z,305.83
2023-05-15T09:33:34.891Z,289.48
2023-05-15T09:36:24.134Z,307.73
2023-05-15T09:39:13.411Z,299.10
2023-05-15T09:42:08.766Z,284.90
2023-05-15T09:44:56.708Z,262.52
2023-05-15T09:47:45.464Z,258.90
2023-05-15T09:50:35.214Z,282.30
2023-05-15T09:53:23.882Z,283.23
2023-05-15T09:56:13.362Z,283.25
2023-05-15T09:59:01.607Z,257.98
2023-05-15T10:01:50.701Z,263.02
2023-05-15T10:04:39.927Z,247.80
2023-05-15T10:07:32.119Z,231.13
2023-05-15T10:10:20.596Z,246.57
2023-05-15T10:13:11.995Z,238.40
2023-05-15T10:16:02.271Z,242.23
2023-05-15T10:18:52.299Z,225.20
2023-05-15T10:21:42.201Z,232.95
2023-05-15T10:24:32.297Z,238.20
2023-05-15T10:27:21.914Z,222.55
2023-05-15T10:30:12.540Z,241.88
2023-05-15T10:33:02.190Z,232.48
2023-05-15T10:35:52.251Z,221.80
2023-05-15T10:38:41.214Z,203.65
2023-05-15T10:41:31.386Z,220.27
2023-05-15T10:44:20.286Z,213.85
2023-05-15T10:47:10.535Z,220.25
2023-05-15T10:49:58.955Z,216.00
2023-05-15T10:52:47.216Z,210.23
2023-05-15T10:55:35.143Z,209.40
2023-05-15T10:58:24.581Z,217.55
2023-05-15T11:01:25.970Z,196.13
2023-05-15T11:04:17.525Z,198.88
2023-05-15T11:07:14.332Z,196.40
2023-05-15T11:10:38.850Z,185.93
2023-05-15T11:13:27.410Z,207.40
2023-05-15T11:16:36.488Z,206.23
2023-05-15T11:19:34.804Z,194.95
2023-05-15T11:22:28.668Z,213.18
2023-05-15T11:25:17.331Z,213.68
2023-05-15T11:28:07.729Z,219.27
2023-05-15T11:31:03.304Z,227.48
2023-05-15T11:33:52.469Z,217.15
2023-05-15T11:36:44.095Z,212.43
2023-05-15T11:39:40.211Z,212.80
2023-05-15T11:42:28.961Z,218.10
2023-05-15T11:45:17.350Z,213.20
2023-05-15T11:48:07.749Z,206.23
2023-05-15T11:50:56.397Z,217.05
2023-05-15T11:53:46.445Z,226.68
2023-05-15T11:56:34.919Z,223.73
2023-05-15T11:59:22.833Z,216.98
2023-05-15T12:02:11.275Z,225.32
2023-05-15T12:04:59.211Z,228.35
2023-05-15T12:07:47.775Z,213.15
2023-05-15T12:10:16.756Z,211.63
2023-05-15T12:12:46.259Z,224.98
2023-05-15T12:15:15.772Z,201.90
2023-05-15T12:17:45.220Z,241.80
2023-05-15T12:20:17.575Z,266.15
2023-05-15T12:22:45.853Z,287.92
2023-05-15T12:25:16.320Z,281.40
2023-05-15T12:27:45.702Z,269.35
2023-05-15T12:30:15.445Z,266.15
2023-05-15T12:32:43.704Z,289.30
2023-05-15T12:35:12.706Z,294.30
2023-05-15T12:37:41.210Z,259.40
2023-05-15T12:40:10.583Z,291.15
2023-05-15T12:42:42.631Z,239.50
2023-05-15T12:45:17.210Z,237.55
2023-05-15T12:47:47.113Z,243.10
2023-05-15T12:50:16.633Z,206.90
2023-05-15T12:52:49.027Z,230.93
2023-05-15T12:55:18.159Z,211.00
2023-05-15T12:57:46.084Z,208.30
2023-05-15T13:00:16.622Z,214.07
2023-05-15T13:02:45.779Z,194.77
2023-05-15T13:05:14.752Z,208.60
2023-05-15T13:07:43.030Z,223.55
2023-05-15T13:10:13.042Z,186.73
2023-05-15T13:12:43.945Z,206.90
2023-05-15T13:15:26.346Z,211.02
2023-05-15T13:18:00.494Z,204.65
2023-05-15T13:20:29.273Z,206.48
2023-05-15T13:22:56.950Z,200.80
2023-05-15T13:25:25.282Z,222.52
2023-05-15T13:27:52.980Z,210.20
2023-05-15T13:30:20.949Z,195.95
2023-05-15T13:32:50.002Z,213.27
2023-05-15T13:35:17.731Z,210.50
2023-05-15T13:37:45.894Z,213.07
2023-05-15T13:40:14.369Z,227.68
2023-05-15T13:42:44.887Z,225.25
2023-05-15T13:45:15.133Z,226.23
2023-05-15T13:47:43.694Z,222.85
2023-05-15T13:50:14.789Z,221.25
2023-05-15T13:52:43.563Z,221.40
2023-05-15T13:55:11.966Z,218.88
2023-05-15T13:57:41.171Z,202.43
2023-05-15T14:00:12.514Z,208.30
2023-05-15T14:02:41.425Z,204.27
2023-05-15T14:05:09.875Z,200.55
2023-05-15T14:07:39.708Z,203.57
2023-05-15T14:10:08.606Z,193.98
2023-05-15T14:12:37.520Z,191.55
2023-05-15T14:15:05.884Z,201.68
2023-05-15T14:17:33.737Z,193.02
2023-05-15T14:20:01.344Z,190.65
2023-05-15T14:22:29.161Z,198.40
2023-05-15T14:24:58.187Z,191.10
2023-05-15T14:27:26.254Z,202.95
2023-05-15T14:29:53.853Z,212.57
2023-05-15T14:32:22.158Z,197.18
2023-05-15T14:34:49.975Z,182.48
2023-05-15T14:37:17.908Z,177.60
2023-05-15T14:39:45.536Z,176.55
2023-05-15T14:42:14.514Z,187.13
2023-05-15T14:44:42.161Z,186.75
2023-05-15T14:47:12.430Z,178.20
2023-05-15T14:49:40.673Z,200.65
2023-05-15T14:52:10.630Z,204.18
2023-05-15T14:54:39.696Z,201.60
2023-05-15T14:57:07.923Z,211.90
2023-05-15T14:59:37.176Z,194.18
2023-05-15T15:02:04.962Z,197.95
2023-05-15T15:04:34.583Z,209.77
2023-05-15T15:07:04.840Z,196.60
2023-05-15T15:09:32.706Z,200.15
2023-05-15T15:12:00.361Z,197.95
2023-05-15T15:14:28.313Z,195.57
2023-05-15T15:16:57.291Z,196.90
2023-05-15T15:19:25.287Z,192.93
2023-05-15T15:21:52.977Z,204.77
2023-05-15T15:24:20.847Z,199.07
2023-05-15T15:26:48.432Z,220.45
2023-05-15T15:29:16.395Z,208.30
2023-05-15T15:31:44.116Z,210.30
2023-05-15T15:34:13.405Z,207.60
2023-05-15T15:36:41.459Z,187.95
2023-05-15T15:39:10.158Z,193.75
2023-05-15T15:41:39.324Z,206.10
2023-05-15T15:44:07.262Z,198.30
2023-05-15T15:46:34.908Z,196.18
2023-05-15T15:49:04.483Z,187.85
2023-05-15T15:51:34.903Z,179.00
2023-05-15T15:54:02.717Z,182.90
2023-05-15T15:56:30.563Z,193.43
2023-05-15T15:58:58.559Z,196.98
2023-05-15T16:01:26.337Z,182.60
2023-05-15T16:03:54.168Z,212.23
2023-05-15T16:06:21.812Z,201.60
2023-05-15T16:08:52.348Z,191.15
2023-05-15T16:11:19.926Z,200.70
2023-05-15T16:13:47.956Z,179.82
2023-05-15T16:16:15.605Z,173.13
2023-05-15T16:18:43.467Z,195.82
2023-05-15T16:21:11.394Z,193.48
2023-05-15T16:23:40.688Z,201.25
2023-05-15T16:26:10.953Z,188.52
2023-05-15T16:28:38.857Z,197.57
2023-05-15T16:31:06.601Z,176.13
2023-05-15T16:33:34.637Z,193.55
2023-05-15T16:36:05.424Z,185.00
2023-05-15T16:38:33.114Z,181.70
2023-05-15T16:41:01.699Z,200.13
2023-05-15T16:43:30.754Z,193.27
2023-05-15T16:45:59.177Z,194.95
2023-05-15T16:48:27.835Z,182.13
2023-05-15T16:50:55.920Z,193.38
2023-05-15T16:53:23.703Z,177.57
2023-05-15T16:55:51.910Z,179.20
2023-05-15T16:58:20.066Z,171.90
2023-05-15T17:00:49.412Z,184.13
2023-05-15T17:03:17.853Z,179.60
2023-05-15T17:05:46.377Z,184.57
2023-05-15T17:08:14.206Z,184.25
2023-05-15T17:10:41.956Z,181.13
2023-05-15T17:13:09.595Z,176.05
2023-05-15T17:15:37.373Z,182.40
2023-05-15T17:18:06.547Z,168.65
2023-05-15T17:20:34.440Z,191.38
2023-05-15T17:23:02.028Z,189.55
2023-05-15T17:25:29.937Z,181.20
2023-05-15T17:27:57.570Z,177.43
2023-05-15T17:30:25.722Z,197.90
2023-05-15T17:32:53.499Z,196.25
2023-05-15T17:35:22.893Z,183.43
2023-05-15T17:37:51.579Z,196.48
2023-05-15T17:40:19.594Z,200.27
2023-05-15T17:42:47.248Z,217.75
2023-05-15T17:45:15.088Z,217.95
2023-05-15T17:47:42.754Z,236.05
2023-05-15T17:50:11.579Z,214.52
2023-05-15T17:52:40.552Z,218.50
2023-05-15T17:55:09.385Z,219.68
2023-05-15T17:57:36.992Z,229.48
2023-05-15T18:00:07.331Z,209.10
2023-05-15T18:02:39.868Z,241.25
2023-05-15T18:05:08.540Z,242.50
2023-05-15T18:07:36.175Z,233.80
2023-05-15T18:10:06.911Z,220.45
2023-05-15T18:12:35.167Z,230.50
2023-05-15T18:15:03.194Z,233.52
2023-05-15T18:17:30.855Z,239.57
2023-05-15T18:19:58.494Z,271.73
2023-05-15T18:22:26.262Z,283.55
2023-05-15T18:24:53.900Z,278.50
2023-05-15T18:27:22.914Z,273.65
2023-05-15T18:29:51.500Z,273.65
2023-05-15T18:32:19.734Z,286.98
2023-05-15T18:34:47.803Z,272.30
2023-05-15T18:37:16.129Z,275.60
2023-05-15T18:39:44.125Z,288.40
2023-05-15T18:42:11.978Z,288.00
2023-05-15T18:44:41.197Z,299.90
2023-05-15T18:47:09.462Z,284.65
2023-05-15T18:49:37.284Z,296.05
2023-05-15T18:52:05.839Z,327.52
2023-05-15T18:54:33.665Z,303.33
2023-05-15T18:57:02.072Z,323.92
2023-05-15T18:59:30.019Z,311.38
2023-05-15T19:01:59.649Z,332.85
2023-05-15T19:04:27.272Z,330.40
2023-05-15T19:06:55.120Z,348.95
2023-05-15T19:09:22.695Z,353.08
2023-05-15T19:11:52.510Z,353.45
2023-05-15T19:14:20.196Z,373.83
2023-05-15T19:16:47.959Z,363.67
2023-05-15T19:19:17.063Z,346.52
2023-05-15T19:21:45.180Z,367.33
2023-05-15T19:24:12.797Z,378.35
2023-05-15T19:26:40.725Z,358.50
2023-05-15T19:29:08.340Z,371.20
2023-05-15T19:31:37.554Z,372.05
2023-05-15T19:34:05.426Z,361.52
2023-05-15T19:36:34.592Z,353.13
2023-05-15T19:39:02.331Z,347.20
2023-05-15T19:41:30.376Z,357.33
2023-05-15T19:43:57.978Z,365.67
2023-05-15T19:46:25.679Z,368.58
2023-05-15T19:48:53.740Z,366.73
2023-05-15T19:51:21.429Z,356.92
2023-05-15T19:53:50.464Z,366.10
2023-05-15T19:56:18.333Z,349.15
2023-05-15T19:58:46.265Z,370.83
2023-05-15T20:01:13.919Z,382.05
2023-05-15T20:03:41.994Z,385.45
2023-05-15T20:06:10.268Z,372.05
2023-05-15T20:08:38.180Z,386.63
2023-05-15T20:11:07.198Z,376.98
2023-05-15T20:13:35.449Z,377.60
2023-05-15T20:16:06.982Z,385.35
2023-05-15T20:18:35.804Z,371.10
2023-05-15T20:21:03.414Z,377.02
2023-05-15T20:23:31.410Z,381.13
2023-05-15T20:25:59.091Z,372.33
2023-05-15T20:28:29.189Z,422.60
2023-05-15T20:30:57.613Z,398.50
2023-05-15T20:33:25.480Z,396.52
2023-05-15T20:35:53.946Z,397.85
2023-05-15T20:38:23.372Z,400.90
2023-05-15T20:40:51.115Z,407.75
2023-05-15T20:43:18.770Z,388.55
2023-05-15T20:45:48.015Z,393.25
2023-05-15T20:48:15.641Z,400.13
2023-05-15T20:50:43.617Z,401.17
2023-05-15T20:53:11.275Z,412.65
2023-05-15T20:55:39.549Z,380.98
2023-05-15T20:58:07.621Z,407.83
2023-05-15T21:00:35.651Z,402.77
2023-05-15T21:03:05.317Z,393.27
2023-05-15T21:05:33.101Z,399.23
2023-05-15T21:08:00.767Z,395.45
2023-05-15T21:10:28.909Z,388.17
2023-05-15T21:12:59.135Z,427.33
2023-05-15T21:15:27.417Z,405.58
2023-05-15T21:17:55.029Z,405.42
2023-05-15T21:20:24.486Z,411.52
2023-05-15T21:22:52.286Z,409.48
2023-05-15T21:25:20.296Z,392.85
2023-05-15T21:27:47.889Z,409.83
2023-05-15T21:30:15.984Z,402.20
2023-05-15T21:32:44.061Z,399.65
2023-05-15T21:35:11.778Z,406.95
2023-05-15T21:37:41.022Z,404.55
2023-05-15T21:40:09.889Z,402.42
2023-05-15T21:42:37.826Z,416.15
2023-05-15T21:45:06.968Z,410.92
2023-05-15T21:47:35.012Z,380.27
2023-05-15T21:50:02.828Z,436.90
2023-05-15T21:52:30.728Z,391.20
2023-05-15T21:54:59.675Z,410.85
2023-05-15T21:57:27.270Z,415.75
2023-05-15T21:59:54.935Z,410.48
2023-05-15T22:02:23.268Z,401.42
2023-05-15T22:04:50.925Z,389.60
2023-05-15T22:07:19.036Z,398.08
2023-05-15T22:09:46.667Z,421.88
2023-05-15T22:12:16.080Z,415.55
2023-05-15T22:14:57.503Z,406.77
2023-05-15T22:17:27.463Z,385.00
2023-05-15T22:20:02.516Z,411.48
2023-05-15T22:22:30.467Z,398.73
2023-05-15T22:24:58.071Z,392.42
2023-05-15T22:27:27.950Z,396.13
2023-05-15T22:29:55.771Z,397.42
2023-05-15T22:32:23.830Z,400.65
2023-05-15T22:34:51.561Z,403.55
2023-05-15T22:37:19.598Z,401.38
2023-05-15T22:39:47.199Z,401.50
2023-05-15T22:42:15.080Z,391.70
2023-05-15T22:44:44.072Z,378.85
2023-05-15T22:47:11.936Z,384.20
2023-05-15T22:49:39.708Z,400.83
2023-05-15T22:52:08.090Z,410.50
2023-05-15T22:54:35.852Z,378.77
2023-05-15T22:57:03.441Z,404.65
2023-05-15T22:59:31.376Z,390.20
2023-05-15T23:02:00.481Z,408.40
2023-05-15T23:04:28.721Z,389.80
2023-05-15T23:06:56.975Z,390.52
2023-05-15T23:09:24.972Z,390.40
2023-05-15T23:11:52.645Z,385.70
2023-05-15T23:14:22.275Z,387.77
2023-05-15T23:16:50.202Z,374.85
2023-05-15T23:19:19.635Z,379.80
2023-05-15T23:21:47.701Z,400.38
2023-05-15T23:24:16.030Z,413.42
2023-05-15T23:26:44.184Z,384.60
2023-05-15T23:29:12.122Z,385.50
2023-05-15T23:31:39.926Z,385.83
2023-05-15T23:34:07.862Z,406.17
2023-05-15T23:36:36.869Z,379.85
2023-05-15T23:39:05.642Z,369.08
2023-05-15T23:41:33.555Z,373.15
2023-05-15T23:44:01.195Z,382.42
2023-05-15T23:46:29.003Z,391.80
2023-05-15T23:48:56.673Z,379.65
2023-05-15T23:51:24.963Z,391.38
2023-05-15T23:53:54.067Z,385.77
2023-05-15T23:56:23.457Z,377.95
2023-05-15T23:58:51.095Z,398.25
